| Back to River Map | <<< Previous Forecast Point | | | Next Forecast Point >>> | Printer Version | Graph Version |  |
|
TRUCKEE RIVER - NIXON (NIXN2)
| Latitude: 39.78º N | Longitude: 119.34º W | Elevation: 3940 Feet | | Forecast Type: Unofficial Location |
| Location: Washoe County in Nevada | Bulletin Group: Eastern Sierra | River Group: Eastern Sierra |
| Issuance Time: | Sep 04 2026 at 7:43 AM PDT | Next Issuance: | Sep 05 2026 at 9:00 AM PDT
| |
| Action: 9.0 Feet | Minor Flood: 10.5 Feet | Moderate Flood: 11.5 Feet | Major Flood: 13.0 Feet |
# Tabular Observed and Forecast Hydrograph Information
#
# Location: Truckee River - Nixon (NIXN2)
#
# File Generation Time: 09/04/2026 at 07:47 AM PDT
# Data Interval: 1 Hour
#
# Most Recent Date & Time of Maximum Observed: 09/02/2026 at 01:00 AM PDT
# Maximum Observed Stage: 3.43 Feet
# Maximum Observed Flow: 247 cfs
#
# Earliest Date & Time of Maximum Forecast: 09/06/2026 at 02:00 AM PDT
# Maximum Forecast Stage: 3.46 Feet
# Maximum Forecast Flow: 256 cfs
#
# OBSERVED
#
# Date & Time (Local) Stage (Feet) Flow (cfs) Trend Observed Status
# ---------------------------------------------------------------------------------
08/30/2026 07 AM PDT 3.38 231 Normal
08/30/2026 08 AM PDT 3.37 228 - Normal
08/30/2026 09 AM PDT 3.38 231 + Normal
08/30/2026 10 AM PDT 3.38 231 0 Normal
08/30/2026 11 AM PDT 3.38 231 0 Normal
08/30/2026 12 PM PDT 3.39 234 + Normal
08/30/2026 01 PM PDT 3.39 234 0 Normal
08/30/2026 02 PM PDT 3.39 234 0 Normal
08/30/2026 03 PM PDT 3.38 231 - Normal
08/30/2026 04 PM PDT 3.37 228 - Normal
08/30/2026 05 PM PDT 3.37 228 0 Normal
08/30/2026 06 PM PDT 3.36 225 - Normal
08/30/2026 07 PM PDT 3.35 222 - Normal
08/30/2026 08 PM PDT 3.34 219 - Normal
08/30/2026 09 PM PDT 3.33 216 - Normal
08/30/2026 10 PM PDT 3.33 216 0 Normal
08/30/2026 11 PM PDT 3.33 216 0 Normal
08/31/2026 12 AM PDT 3.33 216 0 Normal
08/31/2026 01 AM PDT 3.33 216 0 Normal
08/31/2026 02 AM PDT 3.33 216 0 Normal
08/31/2026 03 AM PDT 3.32 213 - Normal
08/31/2026 04 AM PDT 3.32 213 0 Normal
08/31/2026 05 AM PDT 3.32 213 0 Normal
08/31/2026 06 AM PDT 3.32 213 0 Normal
08/31/2026 07 AM PDT 3.32 213 0 Normal
08/31/2026 08 AM PDT 3.33 216 + Normal
08/31/2026 09 AM PDT 3.33 216 0 Normal
08/31/2026 10 AM PDT 3.34 219 + Normal
08/31/2026 11 AM PDT 3.34 219 0 Normal
08/31/2026 12 PM PDT 3.35 222 + Normal
08/31/2026 01 PM PDT 3.36 225 + Normal
08/31/2026 02 PM PDT 3.37 228 + Normal
08/31/2026 03 PM PDT 3.37 228 0 Normal
08/31/2026 04 PM PDT 3.38 231 + Normal
08/31/2026 05 PM PDT 3.36 225 - Normal
08/31/2026 06 PM PDT 3.36 225 0 Normal
08/31/2026 07 PM PDT 3.35 222 - Normal
08/31/2026 08 PM PDT 3.35 222 0 Normal
08/31/2026 09 PM PDT 3.34 219 - Normal
08/31/2026 10 PM PDT 3.34 219 0 Normal
08/31/2026 11 PM PDT 3.34 219 0 Normal
09/01/2026 12 AM PDT 3.34 219 0 Normal
09/01/2026 01 AM PDT 3.35 222 + Normal
09/01/2026 02 AM PDT 3.36 225 + Normal
09/01/2026 03 AM PDT 3.37 228 + Normal
09/01/2026 04 AM PDT 3.36 225 - Normal
09/01/2026 05 AM PDT 3.36 225 0 Normal
09/01/2026 06 AM PDT 3.36 225 0 Normal
09/01/2026 07 AM PDT 3.36 225 0 Normal
09/01/2026 08 AM PDT 3.36 225 0 Normal
09/01/2026 09 AM PDT 3.37 228 + Normal
09/01/2026 10 AM PDT 3.38 231 + Normal
09/01/2026 11 AM PDT 3.39 234 + Normal
09/01/2026 12 PM PDT 3.40 237 + Normal
09/01/2026 01 PM PDT 3.41 240 + Normal
09/01/2026 02 PM PDT 3.42 243 + Normal
09/01/2026 03 PM PDT 3.42 243 0 Normal
09/01/2026 04 PM PDT 3.41 240 - Normal
09/01/2026 05 PM PDT 3.41 240 0 Normal
09/01/2026 06 PM PDT 3.39 234 - Normal
09/01/2026 07 PM PDT 3.39 234 0 Normal
09/01/2026 08 PM PDT 3.40 237 + Normal
09/01/2026 09 PM PDT 3.41 240 + Normal
09/01/2026 10 PM PDT 3.42 243 + Normal
09/01/2026 11 PM PDT 3.43 247 + Normal
09/02/2026 12 AM PDT 3.43 247 0 Normal
09/02/2026 01 AM PDT 3.43 247 0 Normal
09/02/2026 02 AM PDT 3.42 243 - Normal
09/02/2026 03 AM PDT 3.40 237 - Normal
09/02/2026 04 AM PDT 3.38 231 - Normal
09/02/2026 05 AM PDT 3.36 225 - Normal
09/02/2026 06 AM PDT 3.36 225 0 Normal
09/02/2026 07 AM PDT 3.36 225 0 Normal
09/02/2026 08 AM PDT 3.36 225 0 Normal
09/02/2026 09 AM PDT 3.36 225 0 Normal
09/02/2026 10 AM PDT 3.36 225 0 Normal
09/02/2026 11 AM PDT 3.36 225 0 Normal
09/02/2026 12 PM PDT 3.36 225 0 Normal
09/02/2026 01 PM PDT 3.36 225 0 Normal
09/02/2026 02 PM PDT 3.37 228 + Normal
09/02/2026 03 PM PDT 3.38 231 + Normal
09/02/2026 04 PM PDT 3.39 234 + Normal
09/02/2026 05 PM PDT 3.39 234 0 Normal
09/02/2026 06 PM PDT 3.39 234 0 Normal
09/02/2026 07 PM PDT 3.39 234 0 Normal
09/02/2026 08 PM PDT 3.38 231 - Normal
09/02/2026 09 PM PDT 3.38 231 0 Normal
09/02/2026 10 PM PDT 3.38 231 0 Normal
09/02/2026 11 PM PDT 3.38 231 0 Normal
09/03/2026 12 AM PDT 3.38 231 0 Normal
09/03/2026 01 AM PDT 3.38 231 0 Normal
09/03/2026 02 AM PDT 3.38 231 0 Normal
09/03/2026 03 AM PDT 3.38 231 0 Normal
09/03/2026 04 AM PDT 3.38 231 0 Normal
09/03/2026 05 AM PDT 3.38 231 0 Normal
09/03/2026 06 AM PDT 3.38 231 0 Normal
09/03/2026 07 AM PDT 3.37 228 - Normal
09/03/2026 08 AM PDT 3.37 228 0 Normal
09/03/2026 09 AM PDT 3.38 231 + Normal
09/03/2026 10 AM PDT 3.38 231 0 Normal
09/03/2026 11 AM PDT 3.39 234 + Normal
09/03/2026 12 PM PDT 3.38 231 - Normal
09/03/2026 01 PM PDT 3.39 234 + Normal
09/03/2026 02 PM PDT 3.39 234 0 Normal
09/03/2026 03 PM PDT 3.40 237 + Normal
09/03/2026 04 PM PDT 3.40 237 0 Normal
09/03/2026 05 PM PDT 3.40 237 0 Normal
09/03/2026 06 PM PDT 3.40 237 0 Normal
09/03/2026 07 PM PDT 3.40 237 0 Normal
09/03/2026 08 PM PDT 3.40 237 0 Normal
09/03/2026 09 PM PDT 3.39 234 - Normal
09/03/2026 10 PM PDT 3.38 231 - Normal
09/03/2026 11 PM PDT 3.38 231 0 Normal
09/04/2026 12 AM PDT 3.38 231 0 Normal
09/04/2026 01 AM PDT 3.38 231 0 Normal
09/04/2026 02 AM PDT 3.39 234 + Normal
09/04/2026 03 AM PDT 3.40 237 + Normal
09/04/2026 04 AM PDT 3.40 237 0 Normal
09/04/2026 05 AM PDT 3.39 234 - Normal
09/04/2026 06 AM PDT 3.39 234 0 Normal
09/04/2026 07 AM PDT 3.39 234 0 Normal
#
# FORECAST
#
# Date & Time (Local) Stage (Feet) Flow (cfs) Trend Forecast Status
# ---------------------------------------------------------------------------------
09/04/2026 08 AM PDT 3.39 234 Normal
09/04/2026 09 AM PDT 3.40 237 + Normal
09/04/2026 10 AM PDT 3.41 240 + Normal
09/04/2026 11 AM PDT 3.41 240 0 Normal
09/04/2026 12 PM PDT 3.41 240 0 Normal
09/04/2026 01 PM PDT 3.41 240 0 Normal
09/04/2026 02 PM PDT 3.42 243 + Normal
09/04/2026 03 PM PDT 3.42 243 0 Normal
09/04/2026 04 PM PDT 3.41 240 - Normal
09/04/2026 05 PM PDT 3.41 240 0 Normal
09/04/2026 06 PM PDT 3.41 240 0 Normal
09/04/2026 07 PM PDT 3.41 240 0 Normal
09/04/2026 08 PM PDT 3.41 240 0 Normal
09/04/2026 09 PM PDT 3.41 240 0 Normal
09/04/2026 10 PM PDT 3.42 243 + Normal
09/04/2026 11 PM PDT 3.42 243 0 Normal
09/05/2026 12 AM PDT 3.42 243 0 Normal
09/05/2026 01 AM PDT 3.42 243 0 Normal
09/05/2026 02 AM PDT 3.41 240 - Normal
09/05/2026 03 AM PDT 3.41 240 0 Normal
09/05/2026 04 AM PDT 3.42 243 + Normal
09/05/2026 05 AM PDT 3.42 243 0 Normal
09/05/2026 06 AM PDT 3.42 243 0 Normal
09/05/2026 07 AM PDT 3.42 243 0 Normal
09/05/2026 08 AM PDT 3.42 243 0 Normal
09/05/2026 09 AM PDT 3.42 243 0 Normal
09/05/2026 10 AM PDT 3.42 243 0 Normal
09/05/2026 11 AM PDT 3.42 243 0 Normal
09/05/2026 12 PM PDT 3.42 243 0 Normal
09/05/2026 01 PM PDT 3.42 243 0 Normal
09/05/2026 02 PM PDT 3.42 243 0 Normal
09/05/2026 03 PM PDT 3.42 243 0 Normal
09/05/2026 04 PM PDT 3.42 243 0 Normal
09/05/2026 05 PM PDT 3.42 243 0 Normal
09/05/2026 06 PM PDT 3.42 243 0 Normal
09/05/2026 07 PM PDT 3.43 247 + Normal
09/05/2026 08 PM PDT 3.43 247 0 Normal
09/05/2026 09 PM PDT 3.44 250 + Normal
09/05/2026 10 PM PDT 3.44 250 0 Normal
09/05/2026 11 PM PDT 3.45 253 + Normal
09/06/2026 12 AM PDT 3.45 253 0 Normal
09/06/2026 01 AM PDT 3.45 253 0 Normal
09/06/2026 02 AM PDT 3.46 256 + Normal
09/06/2026 03 AM PDT 3.46 256 0 Normal
09/06/2026 04 AM PDT 3.45 253 - Normal
09/06/2026 05 AM PDT 3.45 253 0 Normal
09/06/2026 06 AM PDT 3.45 253 0 Normal
09/06/2026 07 AM PDT 3.45 253 0 Normal
09/06/2026 08 AM PDT 3.45 253 0 Normal
09/06/2026 09 AM PDT 3.44 250 - Normal
09/06/2026 10 AM PDT 3.44 250 0 Normal
09/06/2026 11 AM PDT 3.44 250 0 Normal
09/06/2026 12 PM PDT 3.44 250 0 Normal
09/06/2026 01 PM PDT 3.44 250 0 Normal
09/06/2026 02 PM PDT 3.44 250 0 Normal
09/06/2026 03 PM PDT 3.44 250 0 Normal
09/06/2026 04 PM PDT 3.44 250 0 Normal
09/06/2026 05 PM PDT 3.43 247 - Normal
09/06/2026 06 PM PDT 3.43 247 0 Normal
09/06/2026 07 PM PDT 3.43 247 0 Normal
09/06/2026 08 PM PDT 3.43 247 0 Normal
09/06/2026 09 PM PDT 3.43 247 0 Normal
09/06/2026 10 PM PDT 3.43 247 0 Normal
09/06/2026 11 PM PDT 3.43 247 0 Normal
09/07/2026 12 AM PDT 3.43 247 0 Normal
09/07/2026 01 AM PDT 3.43 247 0 Normal
09/07/2026 02 AM PDT 3.43 247 0 Normal
09/07/2026 03 AM PDT 3.42 243 - Normal
09/07/2026 04 AM PDT 3.42 243 0 Normal
09/07/2026 05 AM PDT 3.42 243 0 Normal
09/07/2026 06 AM PDT 3.42 243 0 Normal
09/07/2026 07 AM PDT 3.42 243 0 Normal
09/07/2026 08 AM PDT 3.42 243 0 Normal
09/07/2026 09 AM PDT 3.42 243 0 Normal
09/07/2026 10 AM PDT 3.42 243 0 Normal
09/07/2026 11 AM PDT 3.42 243 0 Normal
09/07/2026 12 PM PDT 3.42 243 0 Normal
09/07/2026 01 PM PDT 3.42 243 0 Normal
09/07/2026 02 PM PDT 3.42 243 0 Normal
09/07/2026 03 PM PDT 3.42 243 0 Normal
09/07/2026 04 PM PDT 3.42 243 0 Normal
09/07/2026 05 PM PDT 3.42 243 0 Normal
09/07/2026 06 PM PDT 3.42 243 0 Normal
09/07/2026 07 PM PDT 3.42 243 0 Normal
09/07/2026 08 PM PDT 3.42 243 0 Normal
09/07/2026 09 PM PDT 3.42 243 0 Normal
09/07/2026 10 PM PDT 3.42 243 0 Normal
09/07/2026 11 PM PDT 3.42 243 0 Normal
09/08/2026 12 AM PDT 3.42 243 0 Normal
09/08/2026 01 AM PDT 3.42 243 0 Normal
09/08/2026 02 AM PDT 3.42 243 0 Normal
09/08/2026 03 AM PDT 3.42 243 0 Normal
09/08/2026 04 AM PDT 3.42 243 0 Normal
09/08/2026 05 AM PDT 3.42 243 0 Normal
09/08/2026 06 AM PDT 3.42 243 0 Normal
09/08/2026 07 AM PDT 3.42 243 0 Normal
09/08/2026 08 AM PDT 3.41 240 - Normal
09/08/2026 09 AM PDT 3.41 240 0 Normal
09/08/2026 10 AM PDT 3.41 240 0 Normal
09/08/2026 11 AM PDT 3.41 240 0 Normal
09/08/2026 12 PM PDT 3.41 240 0 Normal
09/08/2026 01 PM PDT 3.41 240 0 Normal
09/08/2026 02 PM PDT 3.41 240 0 Normal
09/08/2026 03 PM PDT 3.41 240 0 Normal
09/08/2026 04 PM PDT 3.41 240 0 Normal
09/08/2026 05 PM PDT 3.41 240 0 Normal
09/08/2026 06 PM PDT 3.41 240 0 Normal
09/08/2026 07 PM PDT 3.41 240 0 Normal
09/08/2026 08 PM PDT 3.41 240 0 Normal
09/08/2026 09 PM PDT 3.41 240 0 Normal
09/08/2026 10 PM PDT 3.41 240 0 Normal
09/08/2026 11 PM PDT 3.41 240 0 Normal
09/09/2026 12 AM PDT 3.41 240 0 Normal
09/09/2026 01 AM PDT 3.41 240 0 Normal
09/09/2026 02 AM PDT 3.41 240 0 Normal
09/09/2026 03 AM PDT 3.41 240 0 Normal
09/09/2026 04 AM PDT 3.41 240 0 Normal
09/09/2026 05 AM PDT 3.41 240 0 Normal
#
# NOTE 1: Stages are rounded to the nearest hundredth (.01) of a foot.
# NOTE 2: Flows are rounded to the nearest (1) cfs.
# NOTE 3: Trends are determined using hourly change in unrounded stage and flow.
# NOTE 4: Maximum Values are determined using unrounded stage and flow.
|